sensor_id;sensor_type;location;lat;lon;timestamp;P1;durP1;ratioP1;P2;durP2;ratioP2
41059;SDS011;26811;53.160;8.202;2023-08-30T00:00:01;13.68;;;9.48;;
41059;SDS011;26811;53.160;8.202;2023-08-30T00:05:03;14.15;;;9.48;;
41059;SDS011;26811;53.160;8.202;2023-08-30T00:10:04;15.55;;;9.45;;
41059;SDS011;26811;53.160;8.202;2023-08-30T00:15:05;17.80;;;8.85;;
41059;SDS011;26811;53.160;8.202;2023-08-30T00:20:06;12.60;;;7.88;;
41059;SDS011;26811;53.160;8.202;2023-08-30T00:25:08;10.73;;;7.82;;
41059;SDS011;26811;53.160;8.202;2023-08-30T00:30:09;10.95;;;7.60;;
41059;SDS011;26811;53.160;8.202;2023-08-30T00:35:10;10.13;;;7.65;;
41059;SDS011;26811;53.160;8.202;2023-08-30T00:40:11;10.70;;;7.18;;
41059;SDS011;26811;53.160;8.202;2023-08-30T00:45:12;8.70;;;7.15;;
41059;SDS011;26811;53.160;8.202;2023-08-30T00:50:12;10.00;;;6.70;;
41059;SDS011;26811;53.160;8.202;2023-08-30T00:55:14;13.57;;;6.90;;
41059;SDS011;26811;53.160;8.202;2023-08-30T01:00:15;9.38;;;6.10;;
41059;SDS011;26811;53.160;8.202;2023-08-30T01:05:16;10.27;;;6.30;;
41059;SDS011;26811;53.160;8.202;2023-08-30T01:10:18;9.40;;;6.75;;
41059;SDS011;26811;53.160;8.202;2023-08-30T01:15:22;14.75;;;6.43;;
41059;SDS011;26811;53.160;8.202;2023-08-30T01:20:25;11.32;;;6.47;;
41059;SDS011;26811;53.160;8.202;2023-08-30T01:25:30;9.23;;;6.53;;
41059;SDS011;26811;53.160;8.202;2023-08-30T01:30:40;11.82;;;7.25;;
41059;SDS011;26811;53.160;8.202;2023-08-30T01:35:42;12.13;;;7.32;;
41059;SDS011;26811;53.160;8.202;2023-08-30T01:40:43;10.05;;;7.32;;
41059;SDS011;26811;53.160;8.202;2023-08-30T01:45:45;8.20;;;6.95;;
41059;SDS011;26811;53.160;8.202;2023-08-30T01:50:45;10.32;;;7.25;;
41059;SDS011;26811;53.160;8.202;2023-08-30T01:55:46;12.05;;;7.60;;
41059;SDS011;26811;53.160;8.202;2023-08-30T02:00:47;10.25;;;7.45;;
41059;SDS011;26811;53.160;8.202;2023-08-30T02:05:50;12.88;;;7.85;;
41059;SDS011;26811;53.160;8.202;2023-08-30T02:11:14;12.73;;;8.60;;
41059;SDS011;26811;53.160;8.202;2023-08-30T02:16:17;15.65;;;9.50;;
41059;SDS011;26811;53.160;8.202;2023-08-30T02:21:19;16.00;;;9.65;;
41059;SDS011;26811;53.160;8.202;2023-08-30T02:26:19;13.70;;;9.27;;
41059;SDS011;26811;53.160;8.202;2023-08-30T02:31:20;25.25;;;10.68;;
41059;SDS011;26811;53.160;8.202;2023-08-30T02:36:21;18.83;;;10.52;;
41059;SDS011;26811;53.160;8.202;2023-08-30T02:41:21;16.90;;;9.85;;
41059;SDS011;26811;53.160;8.202;2023-08-30T02:46:22;15.52;;;10.48;;
41059;SDS011;26811;53.160;8.202;2023-08-30T02:51:22;15.73;;;10.73;;
41059;SDS011;26811;53.160;8.202;2023-08-30T02:56:23;18.73;;;11.55;;
41059;SDS011;26811;53.160;8.202;2023-08-30T03:01:25;18.48;;;11.80;;
41059;SDS011;26811;53.160;8.202;2023-08-30T03:06:25;16.25;;;12.32;;
41059;SDS011;26811;53.160;8.202;2023-08-30T03:11:26;17.08;;;11.80;;
41059;SDS011;26811;53.160;8.202;2023-08-30T03:16:27;20.05;;;12.70;;
41059;SDS011;26811;53.160;8.202;2023-08-30T03:21:28;18.17;;;12.03;;
41059;SDS011;26811;53.160;8.202;2023-08-30T03:26:29;18.52;;;12.57;;
41059;SDS011;26811;53.160;8.202;2023-08-30T03:31:30;25.42;;;13.82;;
41059;SDS011;26811;53.160;8.202;2023-08-30T03:36:30;21.38;;;13.68;;
41059;SDS011;26811;53.160;8.202;2023-08-30T03:41:31;22.85;;;13.48;;
41059;SDS011;26811;53.160;8.202;2023-08-30T03:46:31;23.67;;;14.18;;
41059;SDS011;26811;53.160;8.202;2023-08-30T03:51:32;24.77;;;14.75;;
41059;SDS011;26811;53.160;8.202;2023-08-30T03:56:32;23.95;;;14.13;;
41059;SDS011;26811;53.160;8.202;2023-08-30T04:01:33;23.42;;;14.63;;
41059;SDS011;26811;53.160;8.202;2023-08-30T04:06:33;25.05;;;15.68;;
41059;SDS011;26811;53.160;8.202;2023-08-30T04:11:34;22.42;;;14.52;;
41059;SDS011;26811;53.160;8.202;2023-08-30T04:16:36;20.52;;;14.73;;
41059;SDS011;26811;53.160;8.202;2023-08-30T04:21:36;22.67;;;15.63;;
41059;SDS011;26811;53.160;8.202;2023-08-30T04:26:37;24.02;;;15.98;;
41059;SDS011;26811;53.160;8.202;2023-08-30T04:31:37;27.20;;;16.23;;
41059;SDS011;26811;53.160;8.202;2023-08-30T04:36:38;26.60;;;16.00;;
41059;SDS011;26811;53.160;8.202;2023-08-30T04:41:38;25.73;;;15.15;;
41059;SDS011;26811;53.160;8.202;2023-08-30T04:46:39;24.50;;;15.32;;
41059;SDS011;26811;53.160;8.202;2023-08-30T04:51:39;26.20;;;15.80;;
41059;SDS011;26811;53.160;8.202;2023-08-30T04:56:40;25.20;;;15.82;;
41059;SDS011;26811;53.160;8.202;2023-08-30T05:01:40;26.05;;;15.68;;
41059;SDS011;26811;53.160;8.202;2023-08-30T05:06:47;24.67;;;15.85;;
41059;SDS011;26811;53.160;8.202;2023-08-30T05:11:47;25.30;;;16.38;;
41059;SDS011;26811;53.160;8.202;2023-08-30T05:16:54;25.42;;;16.35;;
41059;SDS011;26811;53.160;8.202;2023-08-30T05:21:58;25.55;;;16.27;;
41059;SDS011;26811;53.160;8.202;2023-08-30T05:27:46;25.42;;;16.65;;
41059;SDS011;26811;53.160;8.202;2023-08-30T05:32:36;26.73;;;15.82;;
41059;SDS011;26811;53.160;8.202;2023-08-30T05:38:30;23.83;;;16.02;;
41059;SDS011;26811;53.160;8.202;2023-08-30T05:43:57;26.58;;;16.23;;
41059;SDS011;26811;53.160;8.202;2023-08-30T05:49:29;25.67;;;16.60;;
41059;SDS011;26811;53.160;8.202;2023-08-30T05:54:32;28.10;;;17.10;;
41059;SDS011;26811;53.160;8.202;2023-08-30T05:59:33;29.30;;;17.15;;
41059;SDS011;26811;53.160;8.202;2023-08-30T06:04:35;28.08;;;17.33;;
41059;SDS011;26811;53.160;8.202;2023-08-30T06:09:35;28.20;;;16.70;;
41059;SDS011;26811;53.160;8.202;2023-08-30T06:14:36;27.60;;;17.10;;
41059;SDS011;26811;53.160;8.202;2023-08-30T06:19:36;26.38;;;16.98;;
41059;SDS011;26811;53.160;8.202;2023-08-30T06:24:37;27.00;;;16.73;;
41059;SDS011;26811;53.160;8.202;2023-08-30T06:29:37;25.67;;;16.00;;
41059;SDS011;26811;53.160;8.202;2023-08-30T06:34:38;26.17;;;16.20;;
41059;SDS011;26811;53.160;8.202;2023-08-30T06:39:38;28.27;;;16.00;;
41059;SDS011;26811;53.160;8.202;2023-08-30T06:44:39;31.13;;;17.10;;
41059;SDS011;26811;53.160;8.202;2023-08-30T06:49:40;29.30;;;15.15;;
41059;SDS011;26811;53.160;8.202;2023-08-30T06:54:41;24.63;;;15.95;;
41059;SDS011;26811;53.160;8.202;2023-08-30T06:59:41;29.23;;;15.57;;
41059;SDS011;26811;53.160;8.202;2023-08-30T07:04:42;24.42;;;15.85;;
41059;SDS011;26811;53.160;8.202;2023-08-30T07:09:43;25.17;;;15.20;;
41059;SDS011;26811;53.160;8.202;2023-08-30T07:14:43;22.95;;;14.65;;
41059;SDS011;26811;53.160;8.202;2023-08-30T07:19:44;20.60;;;13.75;;
41059;SDS011;26811;53.160;8.202;2023-08-30T07:24:44;25.77;;;13.90;;
41059;SDS011;26811;53.160;8.202;2023-08-30T07:29:45;27.48;;;13.23;;
41059;SDS011;26811;53.160;8.202;2023-08-30T07:34:46;20.75;;;11.85;;
41059;SDS011;26811;53.160;8.202;2023-08-30T07:39:46;20.20;;;11.93;;
41059;SDS011;26811;53.160;8.202;2023-08-30T07:44:47;20.60;;;11.68;;
41059;SDS011;26811;53.160;8.202;2023-08-30T07:49:47;14.90;;;10.50;;
41059;SDS011;26811;53.160;8.202;2023-08-30T07:54:48;21.10;;;11.43;;
41059;SDS011;26811;53.160;8.202;2023-08-30T07:59:49;14.88;;;10.75;;
41059;SDS011;26811;53.160;8.202;2023-08-30T08:04:49;18.70;;;10.82;;
41059;SDS011;26811;53.160;8.202;2023-08-30T08:09:50;15.68;;;10.73;;
41059;SDS011;26811;53.160;8.202;2023-08-30T08:14:50;15.93;;;10.35;;
41059;SDS011;26811;53.160;8.202;2023-08-30T08:19:51;15.52;;;9.50;;
41059;SDS011;26811;53.160;8.202;2023-08-30T08:24:51;15.13;;;10.00;;
41059;SDS011;26811;53.160;8.202;2023-08-30T08:29:53;14.55;;;9.95;;
41059;SDS011;26811;53.160;8.202;2023-08-30T08:34:54;19.95;;;10.50;;
41059;SDS011;26811;53.160;8.202;2023-08-30T08:39:54;20.35;;;10.50;;
41059;SDS011;26811;53.160;8.202;2023-08-30T08:44:55;20.08;;;11.20;;
41059;SDS011;26811;53.160;8.202;2023-08-30T08:49:58;19.80;;;10.32;;
41059;SDS011;26811;53.160;8.202;2023-08-30T08:55:00;17.63;;;10.02;;
41059;SDS011;26811;53.160;8.202;2023-08-30T09:00:01;17.50;;;10.43;;
41059;SDS011;26811;53.160;8.202;2023-08-30T09:05:02;17.45;;;9.70;;
41059;SDS011;26811;53.160;8.202;2023-08-30T09:10:05;17.45;;;9.60;;
41059;SDS011;26811;53.160;8.202;2023-08-30T09:15:05;15.18;;;8.98;;
41059;SDS011;26811;53.160;8.202;2023-08-30T09:20:07;16.52;;;9.35;;
41059;SDS011;26811;53.160;8.202;2023-08-30T09:25:09;15.82;;;9.13;;
41059;SDS011;26811;53.160;8.202;2023-08-30T09:30:11;15.93;;;9.38;;
41059;SDS011;26811;53.160;8.202;2023-08-30T09:35:12;16.98;;;9.80;;
41059;SDS011;26811;53.160;8.202;2023-08-30T09:40:18;14.55;;;8.93;;
41059;SDS011;26811;53.160;8.202;2023-08-30T09:45:19;15.18;;;9.20;;
41059;SDS011;26811;53.160;8.202;2023-08-30T09:50:22;15.93;;;9.60;;
41059;SDS011;26811;53.160;8.202;2023-08-30T09:55:23;15.27;;;9.05;;
41059;SDS011;26811;53.160;8.202;2023-08-30T10:00:24;17.20;;;9.50;;
41059;SDS011;26811;53.160;8.202;2023-08-30T10:05:25;24.20;;;9.07;;
41059;SDS011;26811;53.160;8.202;2023-08-30T10:10:26;19.33;;;9.47;;
41059;SDS011;26811;53.160;8.202;2023-08-30T10:15:29;12.93;;;8.85;;
41059;SDS011;26811;53.160;8.202;2023-08-30T10:20:33;16.83;;;9.82;;
41059;SDS011;26811;53.160;8.202;2023-08-30T10:25:34;15.55;;;9.48;;
41059;SDS011;26811;53.160;8.202;2023-08-30T10:30:35;17.38;;;10.35;;
41059;SDS011;26811;53.160;8.202;2023-08-30T10:35:36;15.60;;;9.40;;
41059;SDS011;26811;53.160;8.202;2023-08-30T10:40:48;19.92;;;9.80;;
41059;SDS011;26811;53.160;8.202;2023-08-30T10:45:57;16.88;;;9.95;;
41059;SDS011;26811;53.160;8.202;2023-08-30T10:51:02;19.85;;;10.65;;
41059;SDS011;26811;53.160;8.202;2023-08-30T10:56:10;19.25;;;10.30;;
41059;SDS011;26811;53.160;8.202;2023-08-30T11:01:11;22.25;;;10.60;;
41059;SDS011;26811;53.160;8.202;2023-08-30T11:06:13;18.25;;;10.30;;
41059;SDS011;26811;53.160;8.202;2023-08-30T11:11:14;17.92;;;10.00;;
41059;SDS011;26811;53.160;8.202;2023-08-30T11:16:20;18.08;;;9.20;;
41059;SDS011;26811;53.160;8.202;2023-08-30T11:21:21;22.80;;;11.57;;
41059;SDS011;26811;53.160;8.202;2023-08-30T11:26:22;21.38;;;11.98;;
41059;SDS011;26811;53.160;8.202;2023-08-30T11:31:23;21.77;;;12.63;;
41059;SDS011;26811;53.160;8.202;2023-08-30T11:36:30;22.63;;;11.63;;
41059;SDS011;26811;53.160;8.202;2023-08-30T11:41:33;22.85;;;12.15;;
41059;SDS011;26811;53.160;8.202;2023-08-30T11:46:33;27.70;;;13.43;;
41059;SDS011;26811;53.160;8.202;2023-08-30T11:51:34;22.85;;;12.05;;
41059;SDS011;26811;53.160;8.202;2023-08-30T11:56:35;21.33;;;11.63;;
41059;SDS011;26811;53.160;8.202;2023-08-30T12:01:36;23.50;;;12.60;;
41059;SDS011;26811;53.160;8.202;2023-08-30T12:06:38;24.75;;;12.27;;
41059;SDS011;26811;53.160;8.202;2023-08-30T12:11:38;20.73;;;11.05;;
41059;SDS011;26811;53.160;8.202;2023-08-30T12:16:39;18.42;;;11.32;;
41059;SDS011;26811;53.160;8.202;2023-08-30T12:21:50;24.23;;;13.05;;
41059;SDS011;26811;53.160;8.202;2023-08-30T12:26:50;25.73;;;13.85;;
41059;SDS011;26811;53.160;8.202;2023-08-30T12:31:51;23.15;;;14.60;;
41059;SDS011;26811;53.160;8.202;2023-08-30T12:36:51;27.35;;;15.38;;
41059;SDS011;26811;53.160;8.202;2023-08-30T12:41:52;32.25;;;13.88;;
41059;SDS011;26811;53.160;8.202;2023-08-30T12:46:52;24.55;;;14.45;;
41059;SDS011;26811;53.160;8.202;2023-08-30T12:51:53;22.33;;;14.82;;
41059;SDS011;26811;53.160;8.202;2023-08-30T12:56:53;30.25;;;17.02;;
41059;SDS011;26811;53.160;8.202;2023-08-30T13:01:54;33.30;;;18.92;;
41059;SDS011;26811;53.160;8.202;2023-08-30T13:06:54;31.42;;;18.92;;
41059;SDS011;26811;53.160;8.202;2023-08-30T13:11:55;34.03;;;20.25;;
41059;SDS011;26811;53.160;8.202;2023-08-30T13:16:55;36.13;;;21.60;;
41059;SDS011;26811;53.160;8.202;2023-08-30T13:21:56;36.17;;;22.20;;
41059;SDS011;26811;53.160;8.202;2023-08-30T13:26:57;41.10;;;22.38;;
41059;SDS011;26811;53.160;8.202;2023-08-30T13:31:58;44.80;;;24.85;;
41059;SDS011;26811;53.160;8.202;2023-08-30T13:36:58;40.65;;;24.73;;
41059;SDS011;26811;53.160;8.202;2023-08-30T13:41:59;48.70;;;24.50;;
41059;SDS011;26811;53.160;8.202;2023-08-30T13:46:59;43.58;;;25.27;;
41059;SDS011;26811;53.160;8.202;2023-08-30T13:52:00;44.60;;;26.52;;
41059;SDS011;26811;53.160;8.202;2023-08-30T13:57:00;50.45;;;29.00;;
41059;SDS011;26811;53.160;8.202;2023-08-30T14:02:02;50.90;;;29.98;;
41059;SDS011;26811;53.160;8.202;2023-08-30T14:07:04;59.80;;;30.50;;
41059;SDS011;26811;53.160;8.202;2023-08-30T14:12:04;60.60;;;32.47;;
41059;SDS011;26811;53.160;8.202;2023-08-30T14:17:05;59.80;;;33.30;;
41059;SDS011;26811;53.160;8.202;2023-08-30T14:22:06;62.03;;;33.70;;
41059;SDS011;26811;53.160;8.202;2023-08-30T14:27:07;57.42;;;31.95;;
41059;SDS011;26811;53.160;8.202;2023-08-30T14:32:07;55.92;;;32.20;;
41059;SDS011;26811;53.160;8.202;2023-08-30T14:37:08;55.83;;;30.88;;
41059;SDS011;26811;53.160;8.202;2023-08-30T14:42:08;55.63;;;29.67;;
41059;SDS011;26811;53.160;8.202;2023-08-30T14:47:09;46.25;;;27.45;;
41059;SDS011;26811;53.160;8.202;2023-08-30T14:52:09;40.72;;;24.15;;
41059;SDS011;26811;53.160;8.202;2023-08-30T14:57:10;43.90;;;24.67;;
41059;SDS011;26811;53.160;8.202;2023-08-30T15:02:10;43.20;;;26.08;;
41059;SDS011;26811;53.160;8.202;2023-08-30T15:07:11;41.42;;;24.63;;
41059;SDS011;26811;53.160;8.202;2023-08-30T15:12:11;37.55;;;24.17;;
41059;SDS011;26811;53.160;8.202;2023-08-30T15:17:13;44.65;;;25.08;;
41059;SDS011;26811;53.160;8.202;2023-08-30T15:22:15;42.28;;;24.63;;
41059;SDS011;26811;53.160;8.202;2023-08-30T15:27:16;39.63;;;25.50;;
41059;SDS011;26811;53.160;8.202;2023-08-30T15:32:17;40.70;;;25.63;;
41059;SDS011;26811;53.160;8.202;2023-08-30T15:37:17;44.03;;;25.55;;
41059;SDS011;26811;53.160;8.202;2023-08-30T15:42:20;40.20;;;25.38;;
41059;SDS011;26811;53.160;8.202;2023-08-30T15:47:20;41.87;;;23.63;;
41059;SDS011;26811;53.160;8.202;2023-08-30T15:52:21;34.13;;;22.05;;
41059;SDS011;26811;53.160;8.202;2023-08-30T15:57:21;33.55;;;21.77;;
41059;SDS011;26811;53.160;8.202;2023-08-30T16:02:22;36.60;;;21.27;;
41059;SDS011;26811;53.160;8.202;2023-08-30T16:07:22;33.72;;;20.77;;
41059;SDS011;26811;53.160;8.202;2023-08-30T16:12:23;32.75;;;21.13;;
41059;SDS011;26811;53.160;8.202;2023-08-30T16:17:24;31.13;;;20.40;;
41059;SDS011;26811;53.160;8.202;2023-08-30T16:22:24;30.77;;;20.75;;
41059;SDS011;26811;53.160;8.202;2023-08-30T16:27:25;31.42;;;20.23;;
41059;SDS011;26811;53.160;8.202;2023-08-30T16:32:26;29.60;;;19.60;;
41059;SDS011;26811;53.160;8.202;2023-08-30T16:37:26;29.20;;;20.00;;
41059;SDS011;26811;53.160;8.202;2023-08-30T16:42:27;28.95;;;20.75;;
41059;SDS011;26811;53.160;8.202;2023-08-30T16:47:27;28.73;;;20.17;;
41059;SDS011;26811;53.160;8.202;2023-08-30T16:52:28;30.20;;;19.95;;
41059;SDS011;26811;53.160;8.202;2023-08-30T16:57:28;30.60;;;20.02;;
41059;SDS011;26811;53.160;8.202;2023-08-30T17:02:29;30.23;;;20.52;;
41059;SDS011;26811;53.160;8.202;2023-08-30T17:07:30;27.38;;;19.38;;
41059;SDS011;26811;53.160;8.202;2023-08-30T17:12:30;28.30;;;19.23;;
41059;SDS011;26811;53.160;8.202;2023-08-30T17:17:31;27.00;;;18.58;;
41059;SDS011;26811;53.160;8.202;2023-08-30T17:22:31;29.25;;;20.70;;
41059;SDS011;26811;53.160;8.202;2023-08-30T17:27:32;20.90;;;14.65;;
41059;SDS011;26811;53.160;8.202;2023-08-30T17:32:32;9.27;;;7.38;;
41059;SDS011;26811;53.160;8.202;2023-08-30T17:37:33;8.90;;;6.20;;
41059;SDS011;26811;53.160;8.202;2023-08-30T17:42:33;5.88;;;4.50;;
41059;SDS011;26811;53.160;8.202;2023-08-30T17:47:34;5.47;;;3.90;;
41059;SDS011;26811;53.160;8.202;2023-08-30T17:52:34;4.88;;;3.70;;
41059;SDS011;26811;53.160;8.202;2023-08-30T17:57:35;3.80;;;3.38;;
41059;SDS011;26811;53.160;8.202;2023-08-30T18:02:35;3.95;;;2.55;;
41059;SDS011;26811;53.160;8.202;2023-08-30T18:07:36;3.03;;;2.40;;
41059;SDS011;26811;53.160;8.202;2023-08-30T18:12:37;2.20;;;1.80;;
41059;SDS011;26811;53.160;8.202;2023-08-30T18:17:38;2.78;;;2.08;;
41059;SDS011;26811;53.160;8.202;2023-08-30T18:22:38;1.90;;;1.58;;
41059;SDS011;26811;53.160;8.202;2023-08-30T18:27:39;1.75;;;1.60;;
41059;SDS011;26811;53.160;8.202;2023-08-30T18:32:39;4.53;;;2.10;;
41059;SDS011;26811;53.160;8.202;2023-08-30T18:37:40;3.75;;;1.70;;
41059;SDS011;26811;53.160;8.202;2023-08-30T18:42:41;2.10;;;1.90;;
41059;SDS011;26811;53.160;8.202;2023-08-30T18:47:42;2.35;;;2.10;;
41059;SDS011;26811;53.160;8.202;2023-08-30T18:52:42;4.45;;;2.17;;
41059;SDS011;26811;53.160;8.202;2023-08-30T18:57:43;2.92;;;2.03;;
41059;SDS011;26811;53.160;8.202;2023-08-30T19:02:44;3.20;;;1.90;;
41059;SDS011;26811;53.160;8.202;2023-08-30T19:07:45;2.40;;;2.00;;
41059;SDS011;26811;53.160;8.202;2023-08-30T19:12:45;2.47;;;2.25;;
41059;SDS011;26811;53.160;8.202;2023-08-30T19:17:46;5.82;;;2.90;;
41059;SDS011;26811;53.160;8.202;2023-08-30T19:22:47;2.40;;;2.20;;
41059;SDS011;26811;53.160;8.202;2023-08-30T19:27:47;2.83;;;2.22;;
41059;SDS011;26811;53.160;8.202;2023-08-30T19:32:48;3.65;;;3.00;;
41059;SDS011;26811;53.160;8.202;2023-08-30T19:37:48;3.63;;;2.70;;
41059;SDS011;26811;53.160;8.202;2023-08-30T19:42:49;4.55;;;3.08;;
41059;SDS011;26811;53.160;8.202;2023-08-30T19:47:50;4.30;;;3.40;;
41059;SDS011;26811;53.160;8.202;2023-08-30T19:52:50;5.40;;;4.03;;
41059;SDS011;26811;53.160;8.202;2023-08-30T19:57:51;7.75;;;3.97;;
41059;SDS011;26811;53.160;8.202;2023-08-30T20:02:53;12.60;;;6.82;;
41059;SDS011;26811;53.160;8.202;2023-08-30T20:07:53;8.27;;;5.85;;
41059;SDS011;26811;53.160;8.202;2023-08-30T20:12:54;7.78;;;5.03;;
41059;SDS011;26811;53.160;8.202;2023-08-30T20:17:55;6.85;;;4.93;;
41059;SDS011;26811;53.160;8.202;2023-08-30T20:22:55;8.02;;;5.50;;
41059;SDS011;26811;53.160;8.202;2023-08-30T20:27:57;8.82;;;6.25;;
41059;SDS011;26811;53.160;8.202;2023-08-30T20:33:01;9.90;;;5.82;;
41059;SDS011;26811;53.160;8.202;2023-08-30T20:38:02;10.73;;;6.20;;
41059;SDS011;26811;53.160;8.202;2023-08-30T20:43:02;8.32;;;5.95;;
41059;SDS011;26811;53.160;8.202;2023-08-30T20:48:03;7.75;;;5.65;;
41059;SDS011;26811;53.160;8.202;2023-08-30T20:53:04;10.32;;;5.88;;
41059;SDS011;26811;53.160;8.202;2023-08-30T20:58:06;12.07;;;6.65;;
41059;SDS011;26811;53.160;8.202;2023-08-30T21:03:07;12.82;;;6.90;;
41059;SDS011;26811;53.160;8.202;2023-08-30T21:08:08;11.25;;;6.20;;
41059;SDS011;26811;53.160;8.202;2023-08-30T21:13:08;9.60;;;6.18;;
41059;SDS011;26811;53.160;8.202;2023-08-30T21:18:09;9.73;;;6.93;;
41059;SDS011;26811;53.160;8.202;2023-08-30T21:23:10;12.52;;;6.70;;
41059;SDS011;26811;53.160;8.202;2023-08-30T21:28:19;10.40;;;6.70;;
41059;SDS011;26811;53.160;8.202;2023-08-30T21:33:20;11.57;;;6.28;;
41059;SDS011;26811;53.160;8.202;2023-08-30T21:38:22;21.65;;;6.50;;
41059;SDS011;26811;53.160;8.202;2023-08-30T21:43:23;7.35;;;5.82;;
41059;SDS011;26811;53.160;8.202;2023-08-30T21:48:23;7.45;;;5.63;;
41059;SDS011;26811;53.160;8.202;2023-08-30T21:53:24;7.60;;;5.95;;
41059;SDS011;26811;53.160;8.202;2023-08-30T21:58:24;9.48;;;5.78;;
41059;SDS011;26811;53.160;8.202;2023-08-30T22:03:25;11.50;;;5.53;;
41059;SDS011;26811;53.160;8.202;2023-08-30T22:08:26;9.32;;;5.35;;
41059;SDS011;26811;53.160;8.202;2023-08-30T22:13:26;6.78;;;4.95;;
41059;SDS011;26811;53.160;8.202;2023-08-30T22:18:28;6.80;;;4.95;;
41059;SDS011;26811;53.160;8.202;2023-08-30T22:23:28;9.23;;;4.90;;
41059;SDS011;26811;53.160;8.202;2023-08-30T22:28:29;7.38;;;4.18;;
41059;SDS011;26811;53.160;8.202;2023-08-30T22:33:29;5.88;;;4.20;;
41059;SDS011;26811;53.160;8.202;2023-08-30T22:38:36;10.77;;;4.75;;
41059;SDS011;26811;53.160;8.202;2023-08-30T22:43:36;13.50;;;5.07;;
41059;SDS011;26811;53.160;8.202;2023-08-30T22:48:37;10.75;;;5.00;;
41059;SDS011;26811;53.160;8.202;2023-08-30T22:53:37;14.23;;;5.18;;
41059;SDS011;26811;53.160;8.202;2023-08-30T22:58:38;10.90;;;4.68;;
41059;SDS011;26811;53.160;8.202;2023-08-30T23:03:39;9.52;;;4.72;;
41059;SDS011;26811;53.160;8.202;2023-08-30T23:08:41;15.10;;;5.10;;
41059;SDS011;26811;53.160;8.202;2023-08-30T23:13:43;10.53;;;4.87;;
41059;SDS011;26811;53.160;8.202;2023-08-30T23:18:44;9.23;;;5.25;;
41059;SDS011;26811;53.160;8.202;2023-08-30T23:23:45;9.80;;;4.68;;
41059;SDS011;26811;53.160;8.202;2023-08-30T23:28:46;10.80;;;4.70;;
41059;SDS011;26811;53.160;8.202;2023-08-30T23:33:49;13.02;;;4.70;;
41059;SDS011;26811;53.160;8.202;2023-08-30T23:38:50;8.52;;;4.20;;
41059;SDS011;26811;53.160;8.202;2023-08-30T23:43:50;11.35;;;4.50;;
41059;SDS011;26811;53.160;8.202;2023-08-30T23:48:53;7.78;;;4.10;;
41059;SDS011;26811;53.160;8.202;2023-08-30T23:53:54;6.40;;;4.10;;
41059;SDS011;26811;53.160;8.202;2023-08-30T23:58:54;5.97;;;3.83;;
